createdAt,value
2018-01-04T00:00:57.076Z,5.30
2018-01-04T00:03:28.372Z,5.43
2018-01-04T00:06:00.467Z,5.07
2018-01-04T00:08:31.218Z,5.17
2018-01-04T00:11:02.555Z,4.73
2018-01-04T00:13:33.557Z,4.57
2018-01-04T00:16:04.668Z,5.43
2018-01-04T00:18:36.972Z,5.00
2018-01-04T00:21:09.282Z,4.67
2018-01-04T00:23:41.268Z,4.93
2018-01-04T00:26:13.728Z,4.93
2018-01-04T00:28:44.427Z,4.50
2018-01-04T00:31:15.209Z,4.13
2018-01-04T00:33:46.527Z,5.23
2018-01-04T00:36:17.283Z,5.57
2018-01-04T00:38:48.844Z,5.23
2018-01-04T00:41:21.040Z,5.07
2018-01-04T00:43:52.498Z,5.80
2018-01-04T00:46:25.364Z,4.50
2018-01-04T00:48:56.295Z,5.43
2018-01-04T00:51:27.871Z,5.07
2018-01-04T00:53:59.279Z,4.97
2018-01-04T00:56:30.854Z,4.90
2018-01-04T00:59:01.852Z,4.80
2018-01-04T01:01:34.470Z,4.27
2018-01-04T01:04:06.013Z,5.17
2018-01-04T01:06:36.839Z,4.47
2018-01-04T01:09:08.398Z,7.00
2018-01-04T01:11:39.449Z,6.10
2018-01-04T01:14:11.512Z,5.33
2018-01-04T01:16:42.295Z,5.73
2018-01-04T01:19:13.054Z,5.50
2018-01-04T01:21:44.592Z,6.20
2018-01-04T01:24:15.797Z,4.90
2018-01-04T01:26:46.597Z,5.50
2018-01-04T01:29:17.687Z,5.40
2018-01-04T01:31:48.528Z,5.20
2018-01-04T01:34:19.417Z,5.57
2018-01-04T01:36:50.227Z,4.87
2018-01-04T01:39:21.208Z,5.67
2018-01-04T01:41:52.868Z,5.57
2018-01-04T01:44:23.551Z,5.07
2018-01-04T01:46:54.787Z,6.60
2018-01-04T01:49:25.512Z,5.57
2018-01-04T01:51:56.529Z,5.40
2018-01-04T01:54:27.536Z,5.23
2018-01-04T01:56:58.239Z,4.77
2018-01-04T01:59:28.928Z,4.80
2018-01-04T02:02:00.053Z,4.07
2018-01-04T02:04:30.944Z,4.33
2018-01-04T02:07:01.760Z,4.07
2018-01-04T02:09:33.458Z,3.77
2018-01-04T02:12:04.187Z,4.53
2018-01-04T02:14:36.056Z,3.87
2018-01-04T02:17:07.670Z,3.80
2018-01-04T02:22:49.635Z,3.57
2018-01-04T02:25:56.995Z,4.07
2018-01-04T02:29:03.474Z,2.90
2018-01-04T02:33:48.284Z,2.07
2018-01-04T02:38:30.946Z,2.10
2018-01-04T02:41:01.970Z,2.00
2018-01-04T02:44:03.818Z,1.97
2018-01-04T02:46:36.172Z,1.90
2018-01-04T02:49:06.772Z,1.80
2018-01-04T02:51:37.723Z,2.80
2018-01-04T02:54:08.916Z,2.17
2018-01-04T02:56:40.624Z,1.60
2018-01-04T02:59:11.555Z,2.27
2018-01-04T03:01:41.954Z,2.27
2018-01-04T03:04:13.335Z,2.50
2018-01-04T03:06:44.323Z,2.53
2018-01-04T03:09:15.909Z,2.30
2018-01-04T03:11:47.018Z,1.97
2018-01-04T03:14:19.501Z,2.50
2018-01-04T03:16:51.035Z,2.33
2018-01-04T03:19:21.487Z,2.67
2018-01-04T03:21:55.940Z,2.93
2018-01-04T03:24:30.791Z,2.90
2018-01-04T03:29:08.224Z,2.47
2018-01-04T03:31:43.631Z,3.57
2018-01-04T03:36:20.183Z,3.23
2018-01-04T03:39:26.867Z,3.27
2018-01-04T03:44:06.359Z,3.83
2018-01-04T03:48:43.679Z,4.07
2018-01-04T03:53:21.435Z,3.60
2018-01-04T03:57:59.548Z,3.10
2018-01-04T04:00:34.012Z,4.20
2018-01-04T04:03:05.300Z,4.23
2018-01-04T04:05:40.303Z,3.00
2018-01-04T04:08:14.801Z,3.23
2018-01-04T04:10:46.075Z,4.00
2018-01-04T04:13:16.896Z,4.27
2018-01-04T04:15:47.604Z,4.70
2018-01-04T04:18:18.114Z,4.60
2018-01-04T04:20:48.621Z,4.80
2018-01-04T04:23:19.180Z,4.40
2018-01-04T04:25:50.076Z,5.80
2018-01-04T04:28:20.851Z,4.40
2018-01-04T04:30:51.260Z,4.23
2018-01-04T04:33:22.236Z,6.07
2018-01-04T04:35:52.675Z,5.17
2018-01-04T04:38:23.751Z,4.50
2018-01-04T04:40:54.585Z,4.60
2018-01-04T04:43:25.208Z,4.73
2018-01-04T04:45:55.828Z,4.30
2018-01-04T04:48:29.230Z,4.87
2018-01-04T04:51:00.001Z,4.77
2018-01-04T04:53:31.096Z,4.43
2018-01-04T04:56:01.630Z,4.73
2018-01-04T04:58:32.048Z,4.97
2018-01-04T05:01:02.586Z,4.33
2018-01-04T05:03:34.546Z,4.83
2018-01-04T05:06:07.009Z,4.07
2018-01-04T05:08:39.437Z,4.27
2018-01-04T05:11:10.661Z,3.90
2018-01-04T05:13:41.475Z,3.57
2018-01-04T05:16:11.948Z,3.10
2018-01-04T05:18:42.806Z,3.17
2018-01-04T05:21:15.251Z,3.77
2018-01-04T05:23:45.801Z,3.67
2018-01-04T05:26:16.603Z,3.93
2018-01-04T05:28:47.568Z,4.13
2018-01-04T05:31:18.128Z,4.17
2018-01-04T05:33:49.430Z,3.80
2018-01-04T05:36:22.084Z,4.43
2018-01-04T05:38:52.879Z,5.50
2018-01-04T05:41:23.515Z,4.57
2018-01-04T05:43:54.308Z,4.90
2018-01-04T05:46:24.777Z,3.63
2018-01-04T05:48:56.032Z,4.07
2018-01-04T05:51:26.640Z,4.27
2018-01-04T05:53:58.672Z,4.37
2018-01-04T05:56:29.507Z,4.40
2018-01-04T05:59:00.036Z,5.03
2018-01-04T06:01:30.673Z,4.13
2018-01-04T06:04:02.467Z,3.97
2018-01-04T06:06:33.350Z,4.20
2018-01-04T06:09:04.095Z,4.50
2018-01-04T06:11:34.564Z,4.17
2018-01-04T06:14:05.171Z,4.90
2018-01-04T06:16:36.796Z,4.63
2018-01-04T06:19:07.250Z,4.33
2018-01-04T06:21:38.487Z,5.53
2018-01-04T06:24:11.610Z,4.50
2018-01-04T06:26:43.114Z,4.07
2018-01-04T06:29:13.891Z,3.73
2018-01-04T06:31:45.061Z,3.70
2018-01-04T06:34:15.809Z,3.93
2018-01-04T06:36:46.379Z,3.07
2018-01-04T06:39:18.439Z,3.50
2018-01-04T06:41:49.775Z,3.30
2018-01-04T06:44:20.643Z,4.07
2018-01-04T06:46:51.371Z,3.87
2018-01-04T06:49:22.011Z,4.40
2018-01-04T06:51:52.760Z,5.27
2018-01-04T06:54:23.346Z,6.23
2018-01-04T06:56:54.529Z,5.77
2018-01-04T06:59:25.835Z,5.53
2018-01-04T07:01:57.228Z,5.37
2018-01-04T07:04:28.473Z,5.10
2018-01-04T07:07:02.389Z,4.77
2018-01-04T07:09:32.804Z,4.70
2018-01-04T07:12:03.416Z,4.43
2018-01-04T07:14:35.833Z,4.27
2018-01-04T07:17:06.296Z,4.57
2018-01-04T07:19:37.462Z,5.07
2018-01-04T07:22:09.343Z,5.00
2018-01-04T07:24:42.345Z,3.70
2018-01-04T07:27:15.064Z,4.67
2018-01-04T07:29:50.703Z,5.10
2018-01-04T07:32:23.921Z,5.70
2018-01-04T07:34:54.911Z,6.17
2018-01-04T07:37:25.244Z,6.13
2018-01-04T07:39:55.770Z,6.37
2018-01-04T07:42:29.281Z,6.53
2018-01-04T07:45:00.000Z,6.27
2018-01-04T07:47:30.623Z,5.33
2018-01-04T07:50:02.153Z,5.80
2018-01-04T07:52:33.003Z,4.90
2018-01-04T07:55:03.827Z,4.70
2018-01-04T07:57:36.857Z,5.00
2018-01-04T08:00:07.604Z,4.80
2018-01-04T08:02:38.345Z,5.43
2018-01-04T08:05:09.187Z,5.63
2018-01-04T08:07:40.326Z,5.73
2018-01-04T08:10:11.826Z,5.97
2018-01-04T08:12:43.523Z,6.73
2018-01-04T08:15:15.595Z,6.77
2018-01-04T08:17:46.712Z,7.30
2018-01-04T08:20:18.633Z,7.53
2018-01-04T08:22:49.829Z,7.77
2018-01-04T08:25:20.551Z,8.47
2018-01-04T08:27:51.656Z,8.83
2018-01-04T08:30:23.767Z,6.43
2018-01-04T08:32:55.298Z,7.57
2018-01-04T08:35:27.783Z,6.10
2018-01-04T08:37:58.565Z,5.60
2018-01-04T08:40:30.526Z,5.33
2018-01-04T08:43:03.874Z,6.30
2018-01-04T08:45:34.563Z,5.13
2018-01-04T08:48:05.276Z,5.20
2018-01-04T08:50:37.120Z,4.97
2018-01-04T08:53:07.949Z,4.90
2018-01-04T08:55:39.499Z,4.83
2018-01-04T08:58:10.468Z,4.90
2018-01-04T09:00:41.407Z,5.23
2018-01-04T09:03:13.397Z,4.93
2018-01-04T09:06:02.728Z,4.17
2018-01-04T09:08:33.942Z,3.40
2018-01-04T09:11:05.412Z,3.57
2018-01-04T09:13:37.960Z,3.77
2018-01-04T09:16:10.715Z,3.83
2018-01-04T09:18:42.939Z,3.63
2018-01-04T09:21:13.959Z,3.17
2018-01-04T09:23:44.788Z,3.43
2018-01-04T09:26:16.503Z,3.00
2018-01-04T09:29:37.502Z,3.17
2018-01-04T09:32:08.884Z,3.10
2018-01-04T09:34:40.159Z,3.60
2018-01-04T09:37:11.201Z,2.83
2018-01-04T09:39:44.164Z,3.17
2018-01-04T09:42:15.070Z,3.27
2018-01-04T09:44:45.819Z,3.80
2018-01-04T09:47:18.084Z,3.53
2018-01-04T09:49:48.990Z,3.37
2018-01-04T09:52:19.838Z,4.20
2018-01-04T09:54:50.614Z,4.17
2018-01-04T09:57:21.552Z,4.37
2018-01-04T09:59:54.136Z,3.80
2018-01-04T10:02:24.984Z,4.07
2018-01-04T10:04:57.047Z,5.00
2018-01-04T10:07:27.784Z,5.90
2018-01-04T10:09:59.418Z,5.10
2018-01-04T10:12:30.476Z,5.40
2018-01-04T10:15:02.102Z,6.67
2018-01-04T10:17:33.141Z,6.47
2018-01-04T10:20:05.068Z,6.50
2018-01-04T10:22:35.864Z,6.90
2018-01-04T10:25:07.069Z,6.87
2018-01-04T10:27:37.824Z,8.10
2018-01-04T10:30:08.797Z,7.67
2018-01-04T10:32:39.917Z,6.87
2018-01-04T10:35:11.617Z,8.50
2018-01-04T10:37:42.283Z,8.37
2018-01-04T10:40:13.071Z,8.87
2018-01-04T10:42:44.144Z,9.20
2018-01-04T10:45:14.917Z,8.40
2018-01-04T10:47:45.627Z,7.63
2018-01-04T10:50:16.414Z,9.07
2018-01-04T10:52:47.921Z,9.27
2018-01-04T10:55:18.679Z,9.30
2018-01-04T10:57:49.733Z,8.70
2018-01-04T11:00:22.460Z,7.40
2018-01-04T11:02:55.414Z,8.50
2018-01-04T11:05:27.073Z,8.90
2018-01-04T11:07:57.856Z,8.43
2018-01-04T11:10:28.645Z,8.00
2018-01-04T11:12:59.803Z,6.67
2018-01-04T11:15:30.892Z,5.90
2018-01-04T11:18:02.470Z,5.70
2018-01-04T11:20:33.360Z,7.37
2018-01-04T11:23:04.202Z,7.27
2018-01-04T11:25:35.186Z,6.97
2018-01-04T11:28:07.037Z,7.03
2018-01-04T11:30:37.719Z,8.77
2018-01-04T11:33:09.262Z,7.93
2018-01-04T11:35:40.139Z,8.00
2018-01-04T11:38:12.157Z,6.17
2018-01-04T11:40:49.092Z,5.57
2018-01-04T11:43:27.652Z,5.10
2018-01-04T11:46:00.128Z,4.80
2018-01-04T11:48:31.804Z,4.93
2018-01-04T11:51:03.025Z,5.40
2018-01-04T11:53:34.716Z,5.97
2018-01-04T11:56:05.536Z,6.27
2018-01-04T11:58:37.156Z,6.17
2018-01-04T12:01:07.962Z,7.37
2018-01-04T12:03:41.164Z,7.00
2018-01-04T12:06:13.332Z,8.70
2018-01-04T12:08:44.157Z,8.20
2018-01-04T12:11:14.852Z,8.13
2018-01-04T12:13:46.783Z,9.30
2018-01-04T12:16:17.859Z,8.40
2018-01-04T12:18:48.924Z,8.17
2018-01-04T12:21:19.964Z,8.37
2018-01-04T12:23:51.568Z,9.50
2018-01-04T12:26:22.300Z,8.33
2018-01-04T12:28:53.428Z,10.13
2018-01-04T12:31:24.163Z,9.17
2018-01-04T12:33:54.920Z,9.53
2018-01-04T12:36:25.660Z,9.67
2018-01-04T12:38:56.941Z,8.77
2018-01-04T12:41:27.600Z,8.67
2018-01-04T12:43:58.411Z,9.83
2018-01-04T12:46:29.518Z,9.10
2018-01-04T12:49:00.339Z,9.23
2018-01-04T12:51:31.087Z,8.50
2018-01-04T12:54:01.915Z,8.83
2018-01-04T12:56:33.630Z,9.17
2018-01-04T12:59:04.529Z,9.63
2018-01-04T13:01:36.469Z,9.70
2018-01-04T13:04:07.352Z,10.17
2018-01-04T13:06:38.181Z,9.17
2018-01-04T13:09:09.350Z,9.80
2018-01-04T13:11:40.016Z,9.43
2018-01-04T13:14:10.944Z,9.53
2018-01-04T13:16:41.717Z,11.27
2018-01-04T13:19:12.852Z,9.83
2018-01-04T13:21:44.432Z,9.43
2018-01-04T13:24:15.189Z,10.77
2018-01-04T13:26:46.086Z,9.17
2018-01-04T13:29:16.973Z,9.17
2018-01-04T13:31:47.737Z,9.90
2018-01-04T13:34:18.710Z,10.13
2018-01-04T13:36:49.469Z,8.73
2018-01-04T13:39:20.158Z,9.47
2018-01-04T13:41:52.128Z,9.07
2018-01-04T13:44:23.268Z,10.80
2018-01-04T13:46:54.132Z,9.57
2018-01-04T13:49:24.930Z,9.13
2018-01-04T13:51:56.378Z,8.63
2018-01-04T13:54:27.300Z,9.07
2018-01-04T13:56:57.991Z,9.00
2018-01-04T13:59:29.242Z,9.07
2018-01-04T14:02:00.155Z,8.17
2018-01-04T14:04:31.196Z,8.07
2018-01-04T14:07:02.210Z,8.63
2018-01-04T14:09:33.882Z,9.30
2018-01-04T14:12:04.661Z,10.30
2018-01-04T14:14:35.628Z,8.87
2018-01-04T14:17:06.768Z,8.77
2018-01-04T14:19:38.317Z,9.53
2018-01-04T14:22:09.133Z,8.93
2018-01-04T14:24:40.052Z,9.00
2018-01-04T14:27:11.008Z,7.90
2018-01-04T14:29:42.595Z,8.73
2018-01-04T14:32:13.512Z,9.23
2018-01-04T14:34:44.242Z,10.07
2018-01-04T14:37:15.749Z,10.13
2018-01-04T14:39:46.735Z,9.33
2018-01-04T14:42:17.706Z,10.40
2018-01-04T14:44:48.432Z,10.57
2018-01-04T14:47:20.393Z,11.53
2018-01-04T14:49:51.245Z,9.80
2018-01-04T14:52:22.125Z,11.27
2018-01-04T14:54:53.694Z,10.93
2018-01-04T14:57:24.865Z,11.30
2018-01-04T14:59:55.716Z,11.63
2018-01-04T15:02:26.642Z,11.70
2018-01-04T15:04:57.873Z,12.43
2018-01-04T15:07:29.468Z,11.87
2018-01-04T15:10:00.247Z,12.10
2018-01-04T15:12:30.992Z,11.70
2018-01-04T15:15:03.135Z,11.10
2018-01-04T15:17:34.040Z,12.17
2018-01-04T15:20:05.131Z,11.03
2018-01-04T15:22:36.100Z,12.20
2018-01-04T15:25:07.304Z,11.07
2018-01-04T15:27:40.343Z,12.53
2018-01-04T15:30:11.139Z,12.93
2018-01-04T15:32:43.244Z,13.97
2018-01-04T15:35:14.093Z,12.10
2018-01-04T15:37:44.967Z,13.40
2018-01-04T15:40:15.806Z,12.17
2018-01-04T15:42:47.304Z,12.53
2018-01-04T15:45:20.545Z,13.17
2018-01-04T15:47:52.370Z,13.57
2018-01-04T15:50:23.559Z,15.83
2018-01-04T15:52:54.556Z,15.33
2018-01-04T15:55:26.384Z,16.27
2018-01-04T15:57:58.033Z,14.90
2018-01-04T16:00:29.863Z,15.90
2018-01-04T16:03:00.732Z,16.77
2018-01-04T16:05:31.810Z,17.47
2018-01-04T16:08:03.825Z,18.07
2018-01-04T16:10:34.603Z,18.13
2018-01-04T16:13:05.473Z,17.53
2018-01-04T16:15:36.865Z,19.83
2018-01-04T16:18:07.768Z,20.60
2018-01-04T16:20:41.983Z,21.97
2018-01-04T16:23:23.253Z,20.77
2018-01-04T16:25:56.119Z,22.53
2018-01-04T16:28:27.126Z,22.13
2018-01-04T16:30:58.045Z,24.10
2018-01-04T16:33:30.420Z,24.97
2018-01-04T16:36:03.062Z,23.53
2018-01-04T16:38:35.064Z,24.47
2018-01-04T16:41:06.651Z,24.53
2018-01-04T16:43:38.211Z,23.40
2018-01-04T16:46:10.330Z,22.77
2018-01-04T16:48:41.398Z,43.40
2018-01-04T16:51:12.800Z,24.43
2018-01-04T16:53:44.015Z,24.40
2018-01-04T16:56:15.181Z,26.23
2018-01-04T16:58:47.191Z,23.37
2018-01-04T17:01:18.212Z,24.90
2018-01-04T17:03:50.133Z,25.77
2018-01-04T17:06:21.690Z,25.83
2018-01-04T17:08:52.894Z,22.70
2018-01-04T17:11:24.161Z,22.87
2018-01-04T17:13:55.950Z,23.43
2018-01-04T17:16:27.104Z,25.10
2018-01-04T17:18:58.605Z,23.03
2018-01-04T17:21:29.891Z,23.97
2018-01-04T17:24:00.863Z,24.23
2018-01-04T17:26:32.138Z,23.10
2018-01-04T17:29:03.235Z,24.23
2018-01-04T17:31:34.231Z,23.83
2018-01-04T17:34:05.435Z,23.93
2018-01-04T17:36:36.635Z,23.07
2018-01-04T17:39:08.321Z,22.77
2018-01-04T17:41:39.336Z,22.63
2018-01-04T17:44:10.564Z,23.63
2018-01-04T17:46:42.062Z,24.27
2018-01-04T17:49:13.861Z,23.20
2018-01-04T17:51:45.121Z,21.03
2018-01-04T17:54:17.254Z,22.83
2018-01-04T17:56:48.692Z,21.90
2018-01-04T17:59:20.433Z,23.30
2018-01-04T18:01:53.313Z,22.73
2018-01-04T18:04:26.156Z,22.30
2018-01-04T18:06:58.694Z,23.30
2018-01-04T18:09:31.329Z,24.13
2018-01-04T18:12:04.135Z,23.80
2018-01-04T18:14:36.037Z,24.50
2018-01-04T18:17:07.718Z,23.03
2018-01-04T18:19:39.984Z,24.57
2018-01-04T18:22:13.735Z,25.10
2018-01-04T18:24:46.580Z,22.80
2018-01-04T18:27:19.456Z,21.37
2018-01-04T18:29:51.166Z,21.43
2018-01-04T18:32:22.644Z,24.20
2018-01-04T18:34:55.090Z,19.63
2018-01-04T18:37:27.252Z,18.97
2018-01-04T18:40:01.037Z,21.10
2018-01-04T18:42:34.284Z,21.23
2018-01-04T18:45:06.600Z,21.77
2018-01-04T18:47:38.165Z,27.57
2018-01-04T18:50:09.633Z,18.83
2018-01-04T18:52:41.159Z,19.90
2018-01-04T18:55:12.632Z,20.90
2018-01-04T18:57:44.429Z,18.70
2018-01-04T19:00:16.009Z,18.07
2018-01-04T19:02:48.513Z,18.30
2018-01-04T19:05:19.974Z,19.40
2018-01-04T19:07:51.741Z,19.30
2018-01-04T19:10:23.649Z,18.93
2018-01-04T19:12:54.860Z,21.40
2018-01-04T19:15:25.989Z,19.97
2018-01-04T19:17:57.154Z,22.60
2018-01-04T19:20:29.216Z,21.93
2018-01-04T19:23:00.723Z,23.53
2018-01-04T19:25:32.466Z,21.30
2018-01-04T19:28:03.697Z,21.50
2018-01-04T19:30:35.114Z,23.60
2018-01-04T19:33:06.788Z,22.13
2018-01-04T19:35:39.010Z,21.67
2018-01-04T19:38:10.753Z,22.50
2018-01-04T19:40:43.294Z,22.67
2018-01-04T19:43:15.236Z,21.40
2018-01-04T19:45:47.417Z,20.60
2018-01-04T19:48:20.219Z,23.90
2018-01-04T19:50:52.579Z,20.67
2018-01-04T19:53:24.937Z,18.23
2018-01-04T19:55:57.365Z,83.10
2018-01-04T19:58:29.302Z,21.37
2018-01-04T20:01:01.413Z,19.03
2018-01-04T20:03:33.523Z,18.03
2018-01-04T20:06:05.406Z,15.73
2018-01-04T20:08:37.285Z,17.10
2018-01-04T20:11:09.130Z,17.27
2018-01-04T20:13:41.531Z,17.37
2018-01-04T20:16:13.478Z,15.80
2018-01-04T20:18:45.142Z,17.63
2018-01-04T20:21:16.888Z,20.17
2018-01-04T20:23:48.523Z,20.20
2018-01-04T20:26:20.405Z,19.67
2018-01-04T20:28:52.183Z,19.77
2018-01-04T20:31:25.661Z,21.60
2018-01-04T20:34:00.838Z,20.57
2018-01-04T20:36:32.252Z,20.83
2018-01-04T20:39:06.823Z,21.57
2018-01-04T20:41:40.056Z,21.73
2018-01-04T20:44:11.621Z,20.70
2018-01-04T20:46:43.931Z,21.37
2018-01-04T20:49:16.920Z,21.03
2018-01-04T20:51:48.452Z,21.87
2018-01-04T20:54:20.358Z,22.23
2018-01-04T20:56:53.612Z,21.90
2018-01-04T20:59:25.217Z,21.77
2018-01-04T21:01:57.042Z,23.77
2018-01-04T21:04:28.407Z,24.60
2018-01-04T21:06:59.771Z,24.13
2018-01-04T21:09:31.872Z,26.67
2018-01-04T21:12:04.902Z,24.03
2018-01-04T21:14:36.724Z,25.83
2018-01-04T21:17:08.060Z,25.20
2018-01-04T21:19:39.354Z,26.70
2018-01-04T21:22:10.719Z,26.60
2018-01-04T21:24:42.534Z,25.37
2018-01-04T21:27:14.847Z,23.93
2018-01-04T21:29:46.578Z,25.30
2018-01-04T21:32:18.339Z,26.37
2018-01-04T21:34:51.316Z,26.80
2018-01-04T21:37:23.874Z,27.70
2018-01-04T21:39:57.043Z,24.60
2018-01-04T21:42:28.657Z,22.67
2018-01-04T21:45:01.105Z,21.60
2018-01-04T21:47:33.609Z,19.70
2018-01-04T21:50:05.913Z,20.90
2018-01-04T21:52:38.560Z,20.27
2018-01-04T21:55:11.194Z,19.43
2018-01-04T21:57:42.700Z,19.07
2018-01-04T22:00:14.400Z,20.20
2018-01-04T22:02:45.992Z,20.23
2018-01-04T22:05:18.368Z,21.00
2018-01-04T22:07:52.817Z,20.10
2018-01-04T22:10:25.004Z,21.03
2018-01-04T22:12:56.533Z,24.10
2018-01-04T22:15:27.891Z,20.63
2018-01-04T22:17:59.551Z,20.43
2018-01-04T22:20:32.124Z,20.77
2018-01-04T22:23:03.485Z,22.77
2018-01-04T22:25:35.321Z,25.63
2018-01-04T22:28:07.130Z,24.70
2018-01-04T22:30:39.416Z,24.93
2018-01-04T22:33:12.247Z,24.97
2018-01-04T22:35:43.808Z,25.33
2018-01-04T22:38:15.208Z,24.63
2018-01-04T22:40:46.901Z,26.17
2018-01-04T22:43:18.796Z,26.27
2018-01-04T22:45:50.308Z,27.13
2018-01-04T22:48:22.005Z,28.30
2018-01-04T22:50:54.202Z,27.97
2018-01-04T22:53:25.548Z,27.50
2018-01-04T22:55:57.322Z,27.63
2018-01-04T22:58:28.692Z,27.50
2018-01-04T23:01:00.349Z,29.37
2018-01-04T23:03:32.887Z,27.57
2018-01-04T23:06:05.667Z,26.40
2018-01-04T23:08:37.080Z,29.03
2018-01-04T23:11:08.785Z,25.73
2018-01-04T23:13:40.173Z,24.47
2018-01-04T23:16:12.060Z,24.63
2018-01-04T23:18:43.534Z,22.07
2018-01-04T23:21:15.244Z,21.13
2018-01-04T23:23:46.690Z,21.13
2018-01-04T23:26:18.258Z,18.63
2018-01-04T23:28:49.943Z,17.70
2018-01-04T23:31:21.754Z,15.30
2018-01-04T23:33:54.143Z,13.90
2018-01-04T23:36:26.195Z,11.80
2018-01-04T23:38:57.628Z,10.57
2018-01-04T23:41:29.690Z,10.97
2018-01-04T23:44:01.190Z,8.00
2018-01-04T23:46:33.290Z,8.37
2018-01-04T23:49:04.610Z,6.60
2018-01-04T23:51:36.152Z,6.20
2018-01-04T23:54:08.271Z,6.03
2018-01-04T23:56:39.458Z,5.07
2018-01-04T23:59:12.445Z,5.33
